sensor_id;sensor_type;location;lat;lon;timestamp;pressure;altitude;pressure_sealevel;temperature;humidity
72024;BME280;59889;50.700;5.440;2023-02-03T00:01:33;101177.67;;;19.88;32.17
72024;BME280;59889;50.700;5.440;2023-02-03T00:03:58;101177.05;;;19.71;32.08
72024;BME280;59889;50.700;5.440;2023-02-03T00:06:23;101174.94;;;19.58;32.23
72024;BME280;59889;50.700;5.440;2023-02-03T00:11:13;101161.08;;;19.66;32.15
72024;BME280;59889;50.700;5.440;2023-02-03T00:13:39;101145.72;;;19.83;32.22
72024;BME280;59889;50.700;5.440;2023-02-03T00:16:04;101135.77;;;19.53;32.31
72024;BME280;59889;50.700;5.440;2023-02-03T00:18:29;101119.79;;;19.86;32.19
72024;BME280;59889;50.700;5.440;2023-02-03T00:20:54;101111.74;;;19.81;32.25
72024;BME280;59889;50.700;5.440;2023-02-03T00:23:19;101105.68;;;19.68;32.38
72024;BME280;59889;50.700;5.440;2023-02-03T00:25:44;101104.14;;;18.75;32.38
72024;BME280;59889;50.700;5.440;2023-02-03T00:28:09;101103.40;;;19.86;32.21
72024;BME280;59889;50.700;5.440;2023-02-03T00:30:35;101098.86;;;19.80;32.29
72024;BME280;59889;50.700;5.440;2023-02-03T00:32:59;101105.65;;;19.67;32.18
72024;BME280;59889;50.700;5.440;2023-02-03T00:35:24;101107.40;;;19.63;32.47
72024;BME280;59889;50.700;5.440;2023-02-03T00:37:50;101105.19;;;19.77;32.34
72024;BME280;59889;50.700;5.440;2023-02-03T00:40:15;101105.92;;;19.55;32.33
72024;BME280;59889;50.700;5.440;2023-02-03T00:42:40;101102.57;;;19.42;32.45
72024;BME280;59889;50.700;5.440;2023-02-03T00:45:06;101093.33;;;19.71;32.42
72024;BME280;59889;50.700;5.440;2023-02-03T00:47:30;101091.56;;;19.33;32.33
72024;BME280;59889;50.700;5.440;2023-02-03T00:49:55;101084.37;;;19.79;32.33
72024;BME280;59889;50.700;5.440;2023-02-03T00:52:20;101083.49;;;19.16;32.50
72024;BME280;59889;50.700;5.440;2023-02-03T00:54:45;101084.21;;;19.49;32.42
72024;BME280;59889;50.700;5.440;2023-02-03T00:57:10;101089.47;;;19.55;32.36
72024;BME280;59889;50.700;5.440;2023-02-03T00:59:35;101096.50;;;19.81;32.33
72024;BME280;59889;50.700;5.440;2023-02-03T01:02:00;101097.98;;;19.57;32.34
72024;BME280;59889;50.700;5.440;2023-02-03T01:04:26;101109.66;;;19.60;32.33
72024;BME280;59889;50.700;5.440;2023-02-03T01:06:51;101110.00;;;19.78;32.38
72024;BME280;59889;50.700;5.440;2023-02-03T01:09:16;101110.85;;;19.83;32.33
72024;BME280;59889;50.700;5.440;2023-02-03T01:11:42;101119.71;;;19.80;32.36
72024;BME280;59889;50.700;5.440;2023-02-03T01:14:06;101123.21;;;19.72;32.44
72024;BME280;59889;50.700;5.440;2023-02-03T01:16:31;101121.39;;;19.55;32.39
72024;BME280;59889;50.700;5.440;2023-02-03T01:18:56;101121.88;;;19.39;32.30
72024;BME280;59889;50.700;5.440;2023-02-03T01:21:23;101118.48;;;19.82;32.36
72024;BME280;59889;50.700;5.440;2023-02-03T01:23:46;101117.46;;;19.31;32.40
72024;BME280;59889;50.700;5.440;2023-02-03T01:26:14;101136.50;;;19.76;32.43
72024;BME280;59889;50.700;5.440;2023-02-03T01:28:37;101147.53;;;19.62;32.58
72024;BME280;59889;50.700;5.440;2023-02-03T01:31:08;101146.53;;;19.50;32.48
72024;BME280;59889;50.700;5.440;2023-02-03T01:33:27;101143.88;;;19.48;32.50
72024;BME280;59889;50.700;5.440;2023-02-03T01:35:52;101149.71;;;19.59;32.37
72024;BME280;59889;50.700;5.440;2023-02-03T01:38:17;101147.16;;;19.50;32.47
72024;BME280;59889;50.700;5.440;2023-02-03T01:40:43;101144.25;;;19.55;32.42
72024;BME280;59889;50.700;5.440;2023-02-03T01:43:08;101138.82;;;19.56;32.71
72024;BME280;59889;50.700;5.440;2023-02-03T01:45:32;101135.21;;;19.59;32.39
72024;BME280;59889;50.700;5.440;2023-02-03T01:47:58;101130.79;;;19.43;32.57
72024;BME280;59889;50.700;5.440;2023-02-03T01:50:28;101132.52;;;19.69;32.54
72024;BME280;59889;50.700;5.440;2023-02-03T01:52:50;101143.65;;;19.29;32.47
72024;BME280;59889;50.700;5.440;2023-02-03T01:55:16;101148.96;;;19.46;32.55
72024;BME280;59889;50.700;5.440;2023-02-03T01:57:40;101153.37;;;19.55;32.43
72024;BME280;59889;50.700;5.440;2023-02-03T02:00:06;101158.64;;;19.62;32.35
72024;BME280;59889;50.700;5.440;2023-02-03T02:02:28;101154.93;;;19.43;32.57
72024;BME280;59889;50.700;5.440;2023-02-03T02:04:57;101149.23;;;19.33;32.69
72024;BME280;59889;50.700;5.440;2023-02-03T02:07:18;101153.78;;;19.75;32.50
72024;BME280;59889;50.700;5.440;2023-02-03T02:09:44;101155.84;;;19.38;32.37
72024;BME280;59889;50.700;5.440;2023-02-03T02:12:09;101139.46;;;19.83;32.39
72024;BME280;59889;50.700;5.440;2023-02-03T02:14:33;101130.09;;;19.45;32.57
72024;BME280;59889;50.700;5.440;2023-02-03T02:17:05;101146.93;;;19.32;32.72
72024;BME280;59889;50.700;5.440;2023-02-03T02:19:40;101153.51;;;19.29;32.73
72024;BME280;59889;50.700;5.440;2023-02-03T02:22:03;101157.12;;;19.79;32.44
72024;BME280;59889;50.700;5.440;2023-02-03T02:26:50;101139.19;;;19.74;32.52
72024;BME280;59889;50.700;5.440;2023-02-03T02:31:42;101131.06;;;19.52;32.52
72024;BME280;59889;50.700;5.440;2023-02-03T02:33:57;101129.50;;;19.31;32.48
72024;BME280;59889;50.700;5.440;2023-02-03T02:36:25;101138.79;;;19.87;32.38
72024;BME280;59889;50.700;5.440;2023-02-03T02:38:53;101140.41;;;18.71;32.59
72024;BME280;59889;50.700;5.440;2023-02-03T02:41:15;101128.48;;;19.87;32.37
72024;BME280;59889;50.700;5.440;2023-02-03T02:43:40;101122.63;;;19.46;32.59
72024;BME280;59889;50.700;5.440;2023-02-03T02:46:02;101111.05;;;19.55;32.49
72024;BME280;59889;50.700;5.440;2023-02-03T02:48:29;101115.27;;;19.38;32.64
72024;BME280;59889;50.700;5.440;2023-02-03T02:50:52;101124.82;;;19.52;32.52
72024;BME280;59889;50.700;5.440;2023-02-03T02:53:18;101120.31;;;19.56;32.73
72024;BME280;59889;50.700;5.440;2023-02-03T02:55:43;101120.26;;;19.41;32.68
72024;BME280;59889;50.700;5.440;2023-02-03T02:58:08;101116.20;;;19.72;32.56
72024;BME280;59889;50.700;5.440;2023-02-03T03:00:31;101118.69;;;19.73;32.54
72024;BME280;59889;50.700;5.440;2023-02-03T03:02:55;101120.19;;;19.71;32.58
72024;BME280;59889;50.700;5.440;2023-02-03T03:05:21;101118.64;;;19.50;32.57
72024;BME280;59889;50.700;5.440;2023-02-03T03:07:50;101119.36;;;19.11;32.71
72024;BME280;59889;50.700;5.440;2023-02-03T03:10:13;101118.43;;;19.31;32.79
72024;BME280;59889;50.700;5.440;2023-02-03T03:12:39;101112.73;;;19.43;32.64
72024;BME280;59889;50.700;5.440;2023-02-03T03:15:03;101109.13;;;19.48;32.60
72024;BME280;59889;50.700;5.440;2023-02-03T03:17:30;101111.97;;;19.69;32.60
72024;BME280;59889;50.700;5.440;2023-02-03T03:19:54;101112.43;;;19.50;32.57
72024;BME280;59889;50.700;5.440;2023-02-03T03:22:17;101115.59;;;19.65;32.66
72024;BME280;59889;50.700;5.440;2023-02-03T03:24:46;101127.41;;;19.80;32.50
72024;BME280;59889;50.700;5.440;2023-02-03T03:27:09;101131.95;;;19.57;32.49
72024;BME280;59889;50.700;5.440;2023-02-03T03:29:36;101124.63;;;19.77;32.53
72024;BME280;59889;50.700;5.440;2023-02-03T03:31:57;101118.36;;;19.49;32.55
72024;BME280;59889;50.700;5.440;2023-02-03T03:34:22;101112.10;;;19.56;32.48
72024;BME280;59889;50.700;5.440;2023-02-03T03:36:49;101118.33;;;19.37;32.45
72024;BME280;59889;50.700;5.440;2023-02-03T03:39:15;101134.29;;;19.79;32.53
72024;BME280;59889;50.700;5.440;2023-02-03T03:41:42;101135.63;;;19.73;32.58
72024;BME280;59889;50.700;5.440;2023-02-03T03:44:03;101127.97;;;19.73;32.58
72024;BME280;59889;50.700;5.440;2023-02-03T03:46:30;101140.39;;;19.82;32.48
72024;BME280;59889;50.700;5.440;2023-02-03T03:48:55;101139.35;;;19.35;32.48
72024;BME280;59889;50.700;5.440;2023-02-03T03:51:20;101147.63;;;19.73;32.59
72024;BME280;59889;50.700;5.440;2023-02-03T03:53:45;101148.82;;;19.28;32.56
72024;BME280;59889;50.700;5.440;2023-02-03T03:56:11;101145.92;;;19.42;32.68
72024;BME280;59889;50.700;5.440;2023-02-03T03:58:33;101140.09;;;19.59;32.74
72024;BME280;59889;50.700;5.440;2023-02-03T04:01:00;101132.31;;;19.35;32.79
72024;BME280;59889;50.700;5.440;2023-02-03T04:03:25;101132.94;;;19.65;32.73
72024;BME280;59889;50.700;5.440;2023-02-03T04:05:48;101132.39;;;19.32;32.54
72024;BME280;59889;50.700;5.440;2023-02-03T04:08:13;101127.81;;;19.23;32.89
72024;BME280;59889;50.700;5.440;2023-02-03T04:10:40;101129.53;;;19.49;32.60
72024;BME280;59889;50.700;5.440;2023-02-03T04:13:04;101119.70;;;19.32;32.81
72024;BME280;59889;50.700;5.440;2023-02-03T04:15:29;101115.08;;;19.36;32.79
72024;BME280;59889;50.700;5.440;2023-02-03T04:17:53;101106.81;;;19.20;32.66
72024;BME280;59889;50.700;5.440;2023-02-03T04:20:19;101102.27;;;19.30;32.85
72024;BME280;59889;50.700;5.440;2023-02-03T04:22:44;101101.11;;;19.02;32.60
72024;BME280;59889;50.700;5.440;2023-02-03T04:25:09;101100.38;;;19.57;32.79
72024;BME280;59889;50.700;5.440;2023-02-03T04:27:34;101099.35;;;19.44;32.65
72024;BME280;59889;50.700;5.440;2023-02-03T04:29:59;101096.31;;;19.55;32.55
72024;BME280;59889;50.700;5.440;2023-02-03T04:32:24;101090.37;;;19.15;32.77
72024;BME280;59889;50.700;5.440;2023-02-03T04:34:49;101085.87;;;19.35;32.81
72024;BME280;59889;50.700;5.440;2023-02-03T04:37:14;101090.85;;;19.62;32.75
72024;BME280;59889;50.700;5.440;2023-02-03T04:39:39;101089.78;;;19.49;32.61
72024;BME280;59889;50.700;5.440;2023-02-03T04:42:04;101093.62;;;19.40;32.76
72024;BME280;59889;50.700;5.440;2023-02-03T04:44:29;101095.11;;;19.48;32.92
72024;BME280;59889;50.700;5.440;2023-02-03T04:46:54;101105.26;;;19.79;32.58
72024;BME280;59889;50.700;5.440;2023-02-03T04:49:20;101104.92;;;19.79;32.55
72024;BME280;59889;50.700;5.440;2023-02-03T04:51:47;101102.05;;;19.41;32.72
72024;BME280;59889;50.700;5.440;2023-02-03T04:54:10;101105.49;;;19.36;32.77
72024;BME280;59889;50.700;5.440;2023-02-03T04:56:36;101105.21;;;19.52;32.92
72024;BME280;59889;50.700;5.440;2023-02-03T04:59:00;101114.16;;;19.44;32.70
72024;BME280;59889;50.700;5.440;2023-02-03T05:01:25;101119.13;;;19.82;32.54
72024;BME280;59889;50.700;5.440;2023-02-03T05:03:50;101127.24;;;19.21;32.70
72024;BME280;59889;50.700;5.440;2023-02-03T05:06:15;101144.19;;;19.39;32.91
72024;BME280;59889;50.700;5.440;2023-02-03T05:08:41;101147.07;;;19.34;33.51
72024;BME280;59889;50.700;5.440;2023-02-03T05:11:05;101139.90;;;19.10;33.33
72024;BME280;59889;50.700;5.440;2023-02-03T05:13:31;101144.07;;;19.11;33.33
72024;BME280;59889;50.700;5.440;2023-02-03T05:15:55;101155.83;;;19.21;32.89
72024;BME280;59889;50.700;5.440;2023-02-03T05:18:21;101159.61;;;19.18;32.73
72024;BME280;59889;50.700;5.440;2023-02-03T05:20:46;101143.87;;;18.59;32.61
72024;BME280;59889;50.700;5.440;2023-02-03T05:23:11;101129.84;;;19.04;32.55
72024;BME280;59889;50.700;5.440;2023-02-03T05:25:36;101139.11;;;18.95;32.53
72024;BME280;59889;50.700;5.440;2023-02-03T05:28:01;101134.04;;;19.15;32.20
72024;BME280;59889;50.700;5.440;2023-02-03T05:30:26;101130.37;;;18.77;32.69
72024;BME280;59889;50.700;5.440;2023-02-03T05:32:51;101130.95;;;18.64;32.85
72024;BME280;59889;50.700;5.440;2023-02-03T05:35:16;101129.69;;;18.74;33.32
72024;BME280;59889;50.700;5.440;2023-02-03T05:37:52;101114.82;;;18.40;33.59
72024;BME280;59889;50.700;5.440;2023-02-03T05:40:08;101121.61;;;18.37;33.72
72024;BME280;59889;50.700;5.440;2023-02-03T05:42:32;101123.77;;;18.56;33.83
72024;BME280;59889;50.700;5.440;2023-02-03T05:44:57;101123.41;;;19.02;33.31
72024;BME280;59889;50.700;5.440;2023-02-03T05:47:22;101125.82;;;18.67;33.78
72024;BME280;59889;50.700;5.440;2023-02-03T05:54:37;101118.31;;;18.69;33.86
72024;BME280;59889;50.700;5.440;2023-02-03T05:57:02;101124.27;;;18.60;33.96
72024;BME280;59889;50.700;5.440;2023-02-03T05:59:27;101126.94;;;18.95;33.60
72024;BME280;59889;50.700;5.440;2023-02-03T06:01:53;101130.33;;;18.64;33.94
72024;BME280;59889;50.700;5.440;2023-02-03T06:04:18;101135.18;;;18.23;34.23
72024;BME280;59889;50.700;5.440;2023-02-03T06:06:53;101142.63;;;18.31;33.81
72024;BME280;59889;50.700;5.440;2023-02-03T06:09:13;101149.96;;;18.70;33.89
72024;BME280;59889;50.700;5.440;2023-02-03T06:11:35;101152.64;;;18.90;33.72
72024;BME280;59889;50.700;5.440;2023-02-03T06:13:59;101155.14;;;18.91;33.70
72024;BME280;59889;50.700;5.440;2023-02-03T06:16:24;101156.39;;;19.10;33.75
72024;BME280;59889;50.700;5.440;2023-02-03T06:18:49;101153.79;;;18.56;34.13
72024;BME280;59889;50.700;5.440;2023-02-03T06:21:15;101166.33;;;18.79;33.86
72024;BME280;59889;50.700;5.440;2023-02-03T06:23:39;101164.24;;;19.08;33.51
72024;BME280;59889;50.700;5.440;2023-02-03T06:26:04;101168.35;;;18.85;33.82
72024;BME280;59889;50.700;5.440;2023-02-03T06:28:30;101161.30;;;18.60;34.04
72024;BME280;59889;50.700;5.440;2023-02-03T06:30:55;101157.77;;;19.09;33.51
72024;BME280;59889;50.700;5.440;2023-02-03T06:33:20;101158.65;;;19.03;33.59
72024;BME280;59889;50.700;5.440;2023-02-03T06:35:45;101151.48;;;18.02;34.20
72024;BME280;59889;50.700;5.440;2023-02-03T06:38:10;101161.31;;;18.54;33.86
72024;BME280;59889;50.700;5.440;2023-02-03T06:40:35;101170.27;;;19.28;33.62
72024;BME280;59889;50.700;5.440;2023-02-03T06:43:00;101167.44;;;19.10;33.60
72024;BME280;59889;50.700;5.440;2023-02-03T06:45:26;101159.63;;;18.78;34.01
72024;BME280;59889;50.700;5.440;2023-02-03T06:47:51;101149.34;;;18.64;34.23
72024;BME280;59889;50.700;5.440;2023-02-03T06:50:17;101145.31;;;19.02;33.74
72024;BME280;59889;50.700;5.440;2023-02-03T06:52:42;101147.05;;;19.13;33.59
72024;BME280;59889;50.700;5.440;2023-02-03T06:55:07;101141.99;;;19.05;33.72
72024;BME280;59889;50.700;5.440;2023-02-03T06:57:31;101146.83;;;19.12;33.60
72024;BME280;59889;50.700;5.440;2023-02-03T06:59:56;101140.25;;;18.82;33.97
72024;BME280;59889;50.700;5.440;2023-02-03T07:02:21;101138.37;;;19.38;33.53
72024;BME280;59889;50.700;5.440;2023-02-03T07:04:46;101143.36;;;18.87;33.54
72024;BME280;59889;50.700;5.440;2023-02-03T07:07:12;101143.90;;;19.30;33.57
72024;BME280;59889;50.700;5.440;2023-02-03T07:09:36;101139.15;;;18.91;33.76
72024;BME280;59889;50.700;5.440;2023-02-03T07:12:02;101135.67;;;19.04;33.61
72024;BME280;59889;50.700;5.440;2023-02-03T07:14:27;101135.16;;;19.06;33.55
72024;BME280;59889;50.700;5.440;2023-02-03T07:16:52;101139.15;;;18.56;34.12
72024;BME280;59889;50.700;5.440;2023-02-03T07:19:17;101148.18;;;18.46;34.28
72024;BME280;59889;50.700;5.440;2023-02-03T07:21:43;101159.49;;;18.88;33.81
72024;BME280;59889;50.700;5.440;2023-02-03T07:24:07;101159.95;;;18.97;33.64
72024;BME280;59889;50.700;5.440;2023-02-03T07:26:32;101155.31;;;18.90;33.74
72024;BME280;59889;50.700;5.440;2023-02-03T07:28:57;101143.33;;;19.04;33.58
72024;BME280;59889;50.700;5.440;2023-02-03T07:31:22;101132.70;;;18.31;34.23
72024;BME280;59889;50.700;5.440;2023-02-03T07:33:48;101140.57;;;18.69;33.78
72024;BME280;59889;50.700;5.440;2023-02-03T07:36:12;101140.98;;;18.68;33.73
72024;BME280;59889;50.700;5.440;2023-02-03T07:38:38;101146.18;;;18.99;33.69
72024;BME280;59889;50.700;5.440;2023-02-03T07:41:03;101155.27;;;19.09;33.61
72024;BME280;59889;50.700;5.440;2023-02-03T07:43:28;101152.67;;;18.76;34.07
72024;BME280;59889;50.700;5.440;2023-02-03T07:45:53;101156.87;;;18.90;33.99
72024;BME280;59889;50.700;5.440;2023-02-03T07:48:19;101155.99;;;18.97;33.88
72024;BME280;59889;50.700;5.440;2023-02-03T07:50:43;101154.95;;;18.24;34.25
72024;BME280;59889;50.700;5.440;2023-02-03T07:53:08;101155.09;;;19.08;33.85
72024;BME280;59889;50.700;5.440;2023-02-03T07:55:36;101145.12;;;19.29;33.89
72024;BME280;59889;50.700;5.440;2023-02-03T07:57:58;101143.63;;;18.78;34.16
72024;BME280;59889;50.700;5.440;2023-02-03T08:00:24;101162.59;;;19.24;33.96
72024;BME280;59889;50.700;5.440;2023-02-03T08:02:49;101171.84;;;18.96;34.00
72024;BME280;59889;50.700;5.440;2023-02-03T08:05:15;101185.78;;;18.98;34.00
72024;BME280;59889;50.700;5.440;2023-02-03T08:07:39;101191.29;;;19.02;33.90
72024;BME280;59889;50.700;5.440;2023-02-03T08:10:05;101177.67;;;18.68;34.27
72024;BME280;59889;50.700;5.440;2023-02-03T08:12:39;101177.03;;;19.05;33.87
72024;BME280;59889;50.700;5.440;2023-02-03T08:14:54;101178.76;;;18.90;33.99
72024;BME280;59889;50.700;5.440;2023-02-03T08:17:20;101192.82;;;19.11;33.74
72024;BME280;59889;50.700;5.440;2023-02-03T08:19:44;101197.89;;;19.07;33.79
72024;BME280;59889;50.700;5.440;2023-02-03T08:22:09;101199.73;;;18.96;33.87
72024;BME280;59889;50.700;5.440;2023-02-03T08:24:35;101209.37;;;19.11;33.71
72024;BME280;59889;50.700;5.440;2023-02-03T08:27:00;101205.59;;;18.91;33.98
72024;BME280;59889;50.700;5.440;2023-02-03T08:29:25;101204.15;;;19.07;33.79
72024;BME280;59889;50.700;5.440;2023-02-03T08:31:50;101195.75;;;18.73;33.85
72024;BME280;59889;50.700;5.440;2023-02-03T08:34:16;101203.19;;;19.06;33.71
72024;BME280;59889;50.700;5.440;2023-02-03T08:36:41;101206.54;;;19.07;33.69
72024;BME280;59889;50.700;5.440;2023-02-03T08:39:06;101205.02;;;19.11;33.67
72024;BME280;59889;50.700;5.440;2023-02-03T08:41:31;101198.16;;;19.55;33.72
72024;BME280;59889;50.700;5.440;2023-02-03T08:43:56;101202.59;;;19.30;33.72
72024;BME280;59889;50.700;5.440;2023-02-03T08:46:22;101195.85;;;19.02;33.78
72024;BME280;59889;50.700;5.440;2023-02-03T08:48:47;101192.73;;;19.02;33.79
72024;BME280;59889;50.700;5.440;2023-02-03T08:51:14;101194.21;;;19.09;33.68
72024;BME280;59889;50.700;5.440;2023-02-03T08:53:37;101197.22;;;18.91;33.84
72024;BME280;59889;50.700;5.440;2023-02-03T08:56:04;101202.04;;;19.13;33.61
72024;BME280;59889;50.700;5.440;2023-02-03T08:58:27;101213.10;;;19.16;33.57
72024;BME280;59889;50.700;5.440;2023-02-03T09:00:52;101217.98;;;19.07;33.68
72024;BME280;59889;50.700;5.440;2023-02-03T09:03:17;101212.34;;;18.79;33.95
72024;BME280;59889;50.700;5.440;2023-02-03T09:05:47;101224.49;;;19.06;33.68
72024;BME280;59889;50.700;5.440;2023-02-03T09:08:08;101224.38;;;18.87;33.61
72024;BME280;59889;50.700;5.440;2023-02-03T09:10:33;101220.76;;;19.06;33.65
72024;BME280;59889;50.700;5.440;2023-02-03T09:12:58;101210.41;;;19.20;33.49
72024;BME280;59889;50.700;5.440;2023-02-03T09:15:23;101222.94;;;18.91;33.83
72024;BME280;59889;50.700;5.440;2023-02-03T09:17:48;101236.77;;;19.13;33.59
72024;BME280;59889;50.700;5.440;2023-02-03T09:20:13;101245.70;;;19.23;33.44
72024;BME280;59889;50.700;5.440;2023-02-03T09:22:38;101248.49;;;18.85;33.64
72024;BME280;59889;50.700;5.440;2023-02-03T09:25:04;101241.57;;;19.24;33.44
72024;BME280;59889;50.700;5.440;2023-02-03T09:27:28;101243.20;;;19.21;33.48
72024;BME280;59889;50.700;5.440;2023-02-03T09:29:53;101250.09;;;19.05;33.68
72024;BME280;59889;50.700;5.440;2023-02-03T09:32:18;101258.05;;;19.11;33.62
72024;BME280;59889;50.700;5.440;2023-02-03T09:34:44;101263.54;;;18.85;33.61
72024;BME280;59889;50.700;5.440;2023-02-03T09:37:09;101260.33;;;19.14;33.56
72024;BME280;59889;50.700;5.440;2023-02-03T09:39:34;101260.32;;;19.07;33.65
72024;BME280;59889;50.700;5.440;2023-02-03T09:42:11;101252.98;;;19.17;33.52
72024;BME280;59889;50.700;5.440;2023-02-03T09:44:29;101251.68;;;19.10;33.64
72024;BME280;59889;50.700;5.440;2023-02-03T09:46:52;101243.63;;;18.81;33.62
72024;BME280;59889;50.700;5.440;2023-02-03T09:49:17;101236.60;;;19.18;33.48
72024;BME280;59889;50.700;5.440;2023-02-03T09:51:43;101236.74;;;19.16;33.48
72024;BME280;59889;50.700;5.440;2023-02-03T09:54:07;101230.92;;;18.89;33.54
72024;BME280;59889;50.700;5.440;2023-02-03T09:56:32;101237.43;;;19.15;33.51
72024;BME280;59889;50.700;5.440;2023-02-03T09:58:55;101235.23;;;19.18;33.48
72024;BME280;59889;50.700;5.440;2023-02-03T10:01:20;101235.01;;;19.09;33.57
72024;BME280;59889;50.700;5.440;2023-02-03T10:03:49;101230.22;;;18.71;33.47
72024;BME280;59889;50.700;5.440;2023-02-03T10:06:17;101230.95;;;18.93;33.76
72024;BME280;59889;50.700;5.440;2023-02-03T10:08:47;101232.59;;;19.18;33.51
72024;BME280;59889;50.700;5.440;2023-02-03T10:11:05;101227.66;;;18.95;33.47
72024;BME280;59889;50.700;5.440;2023-02-03T10:13:28;101231.07;;;19.08;33.62
72024;BME280;59889;50.700;5.440;2023-02-03T10:16:03;101238.86;;;18.96;33.49
72024;BME280;59889;50.700;5.440;2023-02-03T10:18:19;101245.39;;;19.10;33.58
72024;BME280;59889;50.700;5.440;2023-02-03T10:20:44;101243.16;;;19.12;33.53
72024;BME280;59889;50.700;5.440;2023-02-03T10:23:11;101241.61;;;19.17;33.51
72024;BME280;59889;50.700;5.440;2023-02-03T10:25:33;101242.10;;;19.24;33.44
72024;BME280;59889;50.700;5.440;2023-02-03T10:27:59;101244.59;;;19.04;33.65
72024;BME280;59889;50.700;5.440;2023-02-03T10:30:23;101247.04;;;18.85;33.60
72024;BME280;59889;50.700;5.440;2023-02-03T10:32:48;101249.29;;;19.07;33.36
72024;BME280;59889;50.700;5.440;2023-02-03T10:35:11;101246.88;;;19.22;33.46
72024;BME280;59889;50.700;5.440;2023-02-03T10:37:41;101243.84;;;18.95;33.50
72024;BME280;59889;50.700;5.440;2023-02-03T10:40:01;101253.26;;;19.23;33.48
72024;BME280;59889;50.700;5.440;2023-02-03T10:42:28;101253.12;;;19.07;33.69
72024;BME280;59889;50.700;5.440;2023-02-03T10:44:54;101251.59;;;19.27;33.96
72024;BME280;59889;50.700;5.440;2023-02-03T10:47:23;101260.91;;;19.21;33.50
72024;BME280;59889;50.700;5.440;2023-02-03T10:49:43;101270.37;;;19.27;33.43
72024;BME280;59889;50.700;5.440;2023-02-03T10:52:07;101267.60;;;19.28;33.43
72024;BME280;59889;50.700;5.440;2023-02-03T10:54:34;101272.09;;;19.12;33.62
72024;BME280;59889;50.700;5.440;2023-02-03T10:57:02;101275.93;;;19.22;33.54
72024;BME280;59889;50.700;5.440;2023-02-03T10:59:28;101280.90;;;19.20;33.58
72024;BME280;59889;50.700;5.440;2023-02-03T11:01:48;101286.03;;;19.17;33.57
72024;BME280;59889;50.700;5.440;2023-02-03T11:04:22;101290.31;;;19.09;33.67
72024;BME280;59889;50.700;5.440;2023-02-03T11:06:52;101290.15;;;19.47;33.52
72024;BME280;59889;50.700;5.440;2023-02-03T11:09:20;101285.87;;;19.11;33.62
72024;BME280;59889;50.700;5.440;2023-02-03T11:11:29;101282.59;;;19.27;33.47
72024;BME280;59889;50.700;5.440;2023-02-03T11:13:54;101285.77;;;19.03;33.72
72024;BME280;59889;50.700;5.440;2023-02-03T11:16:18;101286.20;;;18.95;33.90
72024;BME280;59889;50.700;5.440;2023-02-03T11:18:45;101284.03;;;18.99;33.57
72024;BME280;59889;50.700;5.440;2023-02-03T11:21:10;101281.13;;;19.26;33.51
72024;BME280;59889;50.700;5.440;2023-02-03T11:23:33;101281.70;;;18.89;33.98
72024;BME280;59889;50.700;5.440;2023-02-03T11:25:58;101279.94;;;18.77;33.85
72024;BME280;59889;50.700;5.440;2023-02-03T11:28:25;101282.95;;;19.21;33.61
72024;BME280;59889;50.700;5.440;2023-02-03T11:30:53;101280.99;;;19.32;33.50
72024;BME280;59889;50.700;5.440;2023-02-03T11:33:17;101281.73;;;18.89;33.76
72024;BME280;59889;50.700;5.440;2023-02-03T11:35:38;101266.34;;;19.30;33.52
72024;BME280;59889;50.700;5.440;2023-02-03T11:38:03;101273.64;;;19.38;33.45
72024;BME280;59889;50.700;5.440;2023-02-03T11:40:30;101259.15;;;19.37;33.51
72024;BME280;59889;50.700;5.440;2023-02-03T11:43:02;101252.04;;;19.16;33.47
72024;BME280;59889;50.700;5.440;2023-02-03T11:45:25;101251.62;;;19.04;33.59
72024;BME280;59889;50.700;5.440;2023-02-03T11:48:10;101253.75;;;19.00;33.95
72024;BME280;59889;50.700;5.440;2023-02-03T11:50:26;101245.94;;;19.20;33.91
72024;BME280;59889;50.700;5.440;2023-02-03T11:52:49;101239.39;;;19.32;33.73
72024;BME280;59889;50.700;5.440;2023-02-03T11:55:32;101235.90;;;18.98;33.93
72024;BME280;59889;50.700;5.440;2023-02-03T11:57:31;101235.01;;;19.28;33.82
72024;BME280;59889;50.700;5.440;2023-02-03T11:59:59;101233.41;;;19.35;33.75
72024;BME280;59889;50.700;5.440;2023-02-03T12:02:38;101242.04;;;18.97;34.17
72024;BME280;59889;50.700;5.440;2023-02-03T12:04:53;101248.79;;;18.82;34.48
72024;BME280;59889;50.700;5.440;2023-02-03T12:07:18;101249.80;;;18.84;34.18
72024;BME280;59889;50.700;5.440;2023-02-03T12:09:37;101248.84;;;19.22;33.92
72024;BME280;59889;50.700;5.440;2023-02-03T12:12:15;101255.54;;;19.16;34.09
72024;BME280;59889;50.700;5.440;2023-02-03T12:14:41;101264.95;;;19.21;33.98
72024;BME280;59889;50.700;5.440;2023-02-03T12:17:40;101256.27;;;18.54;33.92
72024;BME280;59889;50.700;5.440;2023-02-03T12:19:15;101260.37;;;19.18;33.78
72024;BME280;59889;50.700;5.440;2023-02-03T12:21:42;101267.99;;;19.31;33.89
72024;BME280;59889;50.700;5.440;2023-02-03T12:24:06;101270.71;;;18.76;34.29
72024;BME280;59889;50.700;5.440;2023-02-03T12:26:32;101269.62;;;19.22;34.02
72024;BME280;59889;50.700;5.440;2023-02-03T12:28:58;101273.29;;;19.27;33.95
72024;BME280;59889;50.700;5.440;2023-02-03T12:31:22;101277.73;;;18.88;34.12
72024;BME280;59889;50.700;5.440;2023-02-03T12:36:20;101277.56;;;19.13;34.12
72024;BME280;59889;50.700;5.440;2023-02-03T12:38:35;101277.62;;;19.00;34.31
72024;BME280;59889;50.700;5.440;2023-02-03T12:40:59;101268.38;;;19.30;33.93
72024;BME280;59889;50.700;5.440;2023-02-03T12:43:26;101269.42;;;19.22;33.96
72024;BME280;59889;50.700;5.440;2023-02-03T12:46:10;101266.68;;;18.86;34.14
72024;BME280;59889;50.700;5.440;2023-02-03T12:48:15;101271.32;;;19.21;34.07
72024;BME280;59889;50.700;5.440;2023-02-03T12:50:39;101271.54;;;19.22;34.30
72024;BME280;59889;50.700;5.440;2023-02-03T12:53:04;101265.34;;;19.34;33.86